Elliott, Mississippi
Current Conditions -  °F | °C
As of 9:15 AM on Wednesday 26 Nov 2014 (Local Time) from KGNF Reporting Station
Clear Clear  
Wind Chill: 41°   Ceiling: Unl
Heat Index: 41°   Visibility: 10mi
Dew Point: 32°   Wind: 0mph
Humidity: 70%   Direction: NA
Pressure: 30.19"   Gusts: NA
Location:  33.68°N, 89.75°W
Report Text: KGNF 261515Z AUTO 00000KT 10SM CLR 05/00 A3019 RMK AO2
Loading
Personal Weather Stations






























Interactive Weather Map New forecast layout! Learn more

10-Day Weather Forecast

Advertisements
Track Severe Weather on mobile